Time;durP1;ratioP1;P1;durP2;ratioP2;P2;SDS_P1;SDS_P2;PMS_P1;PMS_P2;Temp;Humidity;BMP_temperature;BMP_pressure;BME280_temperature;BME280_humidity;BME280_pressure;Samples;Min_cycle;Max_cycle;Signal;HPM_P1;HPM_P2
2021/12/06 00:01:55;;;;;;;42.10;23.50;;;230.80;1996.80;;;;;;5096007;28;20107;-56
2021/12/06 00:04:25;;;;;;;49.47;26.23;;;230.70;1996.80;;;;;;5095842;28;20086;-56
2021/12/06 00:06:56;;;;;;;57.70;27.42;;;230.80;1996.80;;;;;;5095768;28;20039;-57
2021/12/06 00:09:25;;;;;;;75.53;32.45;;;230.80;1971.20;;;;;;5095774;28;20071;-56
2021/12/06 00:11:57;;;;;;;80.95;33.85;;;230.80;1971.20;;;;;;5095680;28;20107;-56
2021/12/06 00:14:29;;;;;;;73.93;33.00;;;230.70;1996.80;;;;;;5095610;28;20043;-56
2021/12/06 00:17:01;;;;;;;70.78;29.98;;;230.80;1971.20;;;;;;5095740;28;20024;-57
2021/12/06 00:19:28;;;;;;;56.20;24.20;;;230.70;1996.80;;;;;;5095660;28;20028;-57
2021/12/06 00:21:55;;;;;;;54.45;26.67;;;230.80;1971.20;;;;;;5077054;28;20389;-57
2021/12/06 00:24:21;;;;;;;44.78;22.48;;;230.80;1996.80;;;;;;5095439;28;20031;-56
2021/12/06 00:26:46;;;;;;;42.13;20.48;;;230.70;1971.20;;;;;;5095449;28;20020;-56
2021/12/06 00:29:12;;;;;;;39.88;21.55;;;230.70;1971.20;;;;;;5095251;28;20031;-56
2021/12/06 00:31:38;;;;;;;43.25;21.73;;;230.80;1971.20;;;;;;5095481;28;20397;-57
2021/12/06 00:34:10;;;;;;;46.53;23.60;;;230.70;1971.20;;;;;;5095461;28;20093;-57
2021/12/06 00:36:39;;;;;;;44.08;22.80;;;230.70;1996.80;;;;;;5095412;28;20431;-56
2021/12/06 00:39:08;;;;;;;58.90;30.00;;;230.80;1996.80;;;;;;5095316;28;20027;-56
2021/12/06 00:41:34;;;;;;;68.70;34.15;;;230.70;1996.80;;;;;;5095185;28;20420;-56
2021/12/06 00:44:01;;;;;;;70.45;34.72;;;230.80;1996.80;;;;;;5095030;28;20082;-57
2021/12/06 00:46:27;;;;;;;60.75;32.10;;;230.80;1971.20;;;;;;5095392;28;20077;-57
2021/12/06 00:48:53;;;;;;;59.10;30.20;;;230.70;1996.80;;;;;;5094691;28;20032;-57
2021/12/06 00:51:19;;;;;;;38.90;22.20;;;230.80;1971.20;;;;;;5095073;28;20431;-56
2021/12/06 00:53:45;;;;;;;41.15;21.30;;;230.80;1971.20;;;;;;5086471;28;20076;-57
2021/12/06 00:56:12;;;;;;;29.45;18.10;;;230.80;1996.80;;;;;;5068753;28;20025;-57
2021/12/06 00:58:38;;;;;;;27.10;17.25;;;230.70;1971.20;;;;;;5064609;28;20039;-57
2021/12/06 01:01:06;;;;;;;29.67;18.33;;;230.70;1971.20;;;;;;5065497;28;20124;-56
2021/12/06 01:03:36;;;;;;;27.27;16.92;;;230.70;1971.20;;;;;;5063882;28;20020;-56
2021/12/06 01:06:02;;;;;;;29.35;18.05;;;230.70;1971.20;;;;;;5064892;28;20020;-56
2021/12/06 01:08:28;;;;;;;26.27;16.02;;;230.60;1996.80;;;;;;5067335;28;20375;-56
2021/12/06 01:10:55;;;;;;;28.55;16.08;;;230.60;1971.20;;;;;;5055531;28;20116;-56
2021/12/06 01:13:21;;;;;;;26.25;16.13;;;230.60;1996.80;;;;;;5073571;28;20090;-56
2021/12/06 01:15:48;;;;;;;24.85;15.77;;;230.60;1996.80;;;;;;5073703;28;20048;-56
2021/12/06 01:18:18;;;;;;;24.10;15.13;;;230.60;1996.80;;;;;;5073648;28;20086;-56
2021/12/06 01:21:39;;;;;;;22.65;14.13;;;230.50;2022.40;;;;;;5055228;28;20762;-56
2021/12/06 01:23:53;;;;;;;25.55;16.42;;;230.50;1971.20;;;;;;5059904;28;20043;-56
2021/12/06 01:26:34;;;;;;;24.17;15.88;;;230.50;2022.40;;;;;;5072772;28;20035;-56
2021/12/06 01:29:15;;;;;;;29.08;17.13;;;230.50;1996.80;;;;;;5072851;28;20112;-56
2021/12/06 01:39:10;;;;;;;27.80;16.85;;;230.50;1996.80;;;;;;5075107;28;20028;-57
2021/12/06 01:39:47;;;;;;;34.63;19.80;;;230.50;1996.80;;;;;;5095180;28;20054;-56
2021/12/06 01:42:13;;;;;;;34.38;20.95;;;230.50;1996.80;;;;;;5094966;28;20048;-57
2021/12/06 01:44:42;;;;;;;38.53;22.77;;;230.50;2022.40;;;;;;5094920;28;20494;-57
2021/12/06 01:47:20;;;;;;;50.45;24.83;;;230.50;1996.80;;;;;;5095250;28;20161;-57
2021/12/06 01:49:56;;;;;;;44.22;24.13;;;230.40;2022.40;;;;;;5095161;28;20424;-57
2021/12/06 01:52:25;;;;;;;42.50;23.58;;;230.50;1996.80;;;;;;5094907;28;20093;-56
2021/12/06 01:54:52;;;;;;;42.90;25.42;;;230.50;2022.40;;;;;;5095000;28;20028;-57
2021/12/06 01:57:18;;;;;;;41.13;24.88;;;230.50;2022.40;;;;;;5095053;28;20039;-57
2021/12/06 01:59:44;;;;;;;36.53;24.15;;;230.50;1996.80;;;;;;5094449;28;20028;-57
2021/12/06 02:02:13;;;;;;;39.55;23.80;;;230.40;2022.40;;;;;;5094773;28;20036;-57
2021/12/06 02:04:40;;;;;;;41.65;25.55;;;230.40;1996.80;;;;;;5094791;28;20052;-57
2021/12/06 02:07:07;;;;;;;40.17;25.30;;;230.40;2022.40;;;;;;5094756;28;20088;-57
2021/12/06 02:09:33;;;;;;;41.35;24.42;;;230.40;2022.40;;;;;;5094534;28;20060;-57
2021/12/06 02:12:02;;;;;;;42.42;25.25;;;230.40;1996.80;;;;;;5094533;28;20032;-56
2021/12/06 02:19:34;;;;;;;37.83;24.92;;;205.70;2022.40;;;;;;5094567;28;20024;-57
2021/12/06 02:22:02;;;;;;;45.53;27.02;;;205.70;2022.40;;;;;;5094493;28;20047;-57
2021/12/06 02:24:31;;;;;;;41.60;25.48;;;205.70;2022.40;;;;;;5094433;28;20032;-57
2021/12/06 02:26:58;;;;;;;41.17;25.13;;;205.70;2022.40;;;;;;5094434;28;20032;-57
2021/12/06 02:29:23;;;;;;;40.08;24.67;;;205.70;1996.80;;;;;;5094305;28;20028;-57
2021/12/06 02:31:50;;;;;;;40.30;24.92;;;205.70;2022.40;;;;;;5075527;28;20088;-57
2021/12/06 02:34:16;;;;;;;37.47;24.20;;;230.40;2022.40;;;;;;5094338;28;20073;-57
2021/12/06 02:36:42;;;;;;;38.15;24.30;;;230.40;2022.40;;;;;;5074966;28;20368;-57
2021/12/06 02:39:10;;;;;;;37.35;24.60;;;230.40;2022.40;;;;;;5093381;28;20040;-57
2021/12/06 02:41:37;;;;;;;31.80;22.30;;;230.40;1996.80;;;;;;5094169;28;20027;-56
2021/12/06 02:44:03;;;;;;;35.38;23.13;;;230.40;2022.40;;;;;;5094070;28;20027;-57
2021/12/06 02:46:29;;;;;;;35.72;22.33;;;205.70;2022.40;;;;;;5093688;28;20075;-57
2021/12/06 02:48:55;;;;;;;33.97;22.08;;;205.70;2022.40;;;;;;5093978;28;20545;-57
2021/12/06 02:51:21;;;;;;;32.50;21.25;;;205.70;2022.40;;;;;;5093965;28;20024;-57
2021/12/06 02:53:48;;;;;;;35.58;21.25;;;205.70;2022.40;;;;;;5093799;28;20051;-57
2021/12/06 02:56:30;;;;;;;31.77;20.40;;;205.70;2022.40;;;;;;5093858;28;20414;-57
2021/12/06 02:58:58;;;;;;;31.10;19.02;;;205.70;2022.40;;;;;;5094084;28;20035;-57
2021/12/06 03:01:44;;;;;;;30.13;18.83;;;205.70;2022.40;;;;;;5093812;28;20103;-57
2021/12/06 03:04:10;;;;;;;28.35;19.05;;;205.70;2022.40;;;;;;5093832;28;20420;-57
2021/12/06 03:06:37;;;;;;;29.70;19.63;;;205.70;2022.40;;;;;;5093728;28;20492;-57
2021/12/06 03:09:11;;;;;;;31.50;20.73;;;205.70;2022.40;;;;;;5093355;28;20052;-57
2021/12/06 03:11:41;;;;;;;29.92;19.20;;;205.70;1996.80;;;;;;5093999;28;20104;-57
2021/12/06 03:14:19;;;;;;;30.60;19.52;;;205.70;2048.00;;;;;;5093653;28;20051;-57
2021/12/06 03:16:45;;;;;;;35.13;19.65;;;205.70;2022.40;;;;;;5093423;28;20042;-57
2021/12/06 03:19:11;;;;;;;31.00;18.63;;;205.70;2048.00;;;;;;5093681;28;20028;-57
2021/12/06 03:21:38;;;;;;;33.53;18.65;;;205.70;2022.40;;;;;;5093512;28;20111;-57
2021/12/06 03:24:04;;;;;;;31.48;17.52;;;205.70;2022.40;;;;;;5093725;28;20020;-57
2021/12/06 03:26:31;;;;;;;28.85;16.55;;;205.70;2048.00;;;;;;5094109;28;20492;-57
2021/12/06 03:28:57;;;;;;;27.95;16.05;;;205.70;1996.80;;;;;;5097619;28;20071;-57
2021/12/06 03:31:24;;;;;;;26.75;14.20;;;205.70;1996.80;;;;;;5097471;28;20039;-59
2021/12/06 03:33:52;;;;;;;26.80;14.27;;;205.70;1996.80;;;;;;5097457;28;20036;-60
2021/12/06 03:36:20;;;;;;;25.23;13.00;;;205.70;1996.80;;;;;;5097656;28;20034;-60
2021/12/06 03:38:47;;;;;;;22.05;11.88;;;205.60;1996.80;;;;;;5079251;28;20115;-59
2021/12/06 03:41:15;;;;;;;23.85;12.95;;;205.60;1971.20;;;;;;5097554;28;20027;-60
2021/12/06 03:43:41;;;;;;;21.33;12.52;;;205.60;1996.80;;;;;;5097165;28;20043;-60
2021/12/06 03:46:12;;;;;;;25.35;12.63;;;205.50;1971.20;;;;;;5097132;28;20027;-61
2021/12/06 03:48:38;;;;;;;27.52;13.85;;;205.50;1996.80;;;;;;5097327;28;20093;-61
2021/12/06 03:51:04;;;;;;;27.63;14.20;;;205.50;1996.80;;;;;;5097358;28;20032;-60
2021/12/06 03:53:30;;;;;;;24.63;12.88;;;205.40;1996.80;;;;;;5096878;28;20028;-60
2021/12/06 03:55:56;;;;;;;26.15;13.38;;;205.40;1996.80;;;;;;5097246;28;20066;-61
2021/12/06 03:58:22;;;;;;;27.10;14.27;;;205.30;1996.80;;;;;;5096946;28;20047;-60
2021/12/06 04:00:48;;;;;;;22.85;13.38;;;205.30;1996.80;;;;;;5096491;28;20466;-61
2021/12/06 04:03:16;;;;;;;24.98;14.75;;;205.30;2022.40;;;;;;5097039;28;20031;-60
2021/12/06 04:05:42;;;;;;;23.70;13.43;;;205.30;1996.80;;;;;;5096978;28;20493;-61
2021/12/06 04:08:08;;;;;;;25.65;14.50;;;205.20;2022.40;;;;;;5096289;28;20044;-61
2021/12/06 04:10:34;;;;;;;32.28;18.20;;;205.30;1996.80;;;;;;5096870;28;20020;-61
2021/12/06 04:13:00;;;;;;;31.00;16.15;;;205.20;2022.40;;;;;;5096982;28;20374;-61
2021/12/06 04:15:30;;;;;;;40.30;21.48;;;205.20;2022.40;;;;;;5096759;28;20028;-61
2021/12/06 04:17:58;;;;;;;39.05;21.48;;;205.30;2048.00;;;;;;5096272;28;20024;-60
2021/12/06 04:20:24;;;;;;;34.78;19.35;;;205.30;2048.00;;;;;;5096851;28;20024;-61
2021/12/06 04:22:51;;;;;;;33.97;18.20;;;205.30;2022.40;;;;;;5096580;28;20081;-60
2021/12/06 04:25:18;;;;;;;28.88;16.95;;;205.20;2022.40;;;;;;5096748;28;20028;-60
2021/12/06 04:27:51;;;;;;;28.98;15.82;;;205.20;2022.40;;;;;;5097050;28;20368;-61
2021/12/06 04:30:17;;;;;;;29.00;16.48;;;205.20;2022.40;;;;;;5094370;28;20066;-61
2021/12/06 04:32:43;;;;;;;28.27;15.50;;;205.20;2022.40;;;;;;5085996;28;20032;-60
2021/12/06 04:35:09;;;;;;;32.72;15.73;;;205.20;1996.80;;;;;;5078056;28;20114;-61
2021/12/06 04:37:35;;;;;;;27.63;15.82;;;205.20;1996.80;;;;;;5096013;28;20028;-61
2021/12/06 04:40:05;;;;;;;27.60;15.52;;;205.20;1996.80;;;;;;5095979;28;20035;-60
2021/12/06 04:42:31;;;;;;;29.77;16.45;;;205.10;2022.40;;;;;;5096278;28;20471;-61
2021/12/06 04:44:57;;;;;;;29.15;16.02;;;205.10;2022.40;;;;;;5077089;28;20036;-61
2021/12/06 04:47:23;;;;;;;28.67;16.35;;;205.10;2022.40;;;;;;5096168;28;20089;-61
2021/12/06 04:49:48;;;;;;;28.45;15.77;;;205.00;2022.40;;;;;;5096282;28;20028;-61
2021/12/06 04:52:16;;;;;;;31.27;17.33;;;205.00;2022.40;;;;;;5094933;28;20498;-60
2021/12/06 04:54:46;;;;;;;31.30;16.73;;;205.00;2022.40;;;;;;5096013;28;20028;-60
2021/12/06 04:57:19;;;;;;;29.13;16.27;;;205.00;2048.00;;;;;;5090026;28;20114;-61
2021/12/06 04:59:59;;;;;;;34.28;19.45;;;205.00;2022.40;;;;;;5095745;28;20031;-60
2021/12/06 05:02:29;;;;;;;32.63;17.77;;;205.00;2022.40;;;;;;5077486;28;20032;-60
2021/12/06 05:04:58;;;;;;;35.03;18.35;;;205.00;2022.40;;;;;;5095804;28;20028;-60
2021/12/06 05:07:32;;;;;;;32.83;18.85;;;205.00;2022.40;;;;;;5095801;28;20040;-60
2021/12/06 05:09:58;;;;;;;29.25;17.73;;;205.00;2022.40;;;;;;5095551;28;20477;-60
2021/12/06 05:12:29;;;;;;;29.88;17.65;;;205.00;2022.40;;;;;;5095356;28;20040;-61
2021/12/06 05:14:55;;;;;;;33.33;18.83;;;205.00;2022.40;;;;;;5095490;28;20033;-61
2021/12/06 05:17:21;;;;;;;30.85;18.33;;;205.00;2022.40;;;;;;5095397;28;20028;-61
2021/12/06 05:19:46;;;;;;;28.23;16.15;;;205.00;1996.80;;;;;;5095508;28;20024;-61
2021/12/06 05:22:13;;;;;;;34.92;17.60;;;205.00;1996.80;;;;;;5095386;28;20114;-61
2021/12/06 05:24:40;;;;;;;28.52;17.10;;;205.00;1996.80;;;;;;5095374;28;20483;-60
2021/12/06 05:27:06;;;;;;;25.98;15.48;;;205.00;1996.80;;;;;;5095295;28;20148;-60
2021/12/06 05:29:33;;;;;;;27.70;16.27;;;205.00;1996.80;;;;;;5094887;28;20103;-60
2021/12/06 05:32:00;;;;;;;23.92;14.63;;;205.00;2022.40;;;;;;5095211;28;20060;-60
2021/12/06 05:34:34;;;;;;;27.65;16.10;;;204.90;2022.40;;;;;;5095251;28;20035;-60
2021/12/06 05:37:00;;;;;;;24.63;15.32;;;204.90;2022.40;;;;;;5076748;28;20035;-61
2021/12/06 05:39:30;;;;;;;32.47;18.02;;;204.90;2022.40;;;;;;5095304;28;20032;-60
2021/12/06 05:42:17;;;;;;;32.67;19.77;;;204.90;1996.80;;;;;;5094966;28;20103;-60
2021/12/06 05:44:43;;;;;;;30.85;19.60;;;204.90;2022.40;;;;;;5094127;28;20367;-60
2021/12/06 05:47:10;;;;;;;35.58;20.48;;;204.90;2022.40;;;;;;5094326;28;20047;-60
2021/12/06 05:49:36;;;;;;;29.80;20.05;;;204.90;1996.80;;;;;;5094141;28;20085;-60
2021/12/06 05:52:02;;;;;;;30.38;21.23;;;204.80;2022.40;;;;;;5094822;28;20020;-61
2021/12/06 05:54:28;;;;;;;27.45;20.13;;;204.90;1996.80;;;;;;5094895;28;20024;-61
2021/12/06 05:56:55;;;;;;;33.30;21.90;;;204.90;1996.80;;;;;;5095102;28;20043;-61
2021/12/06 05:59:21;;;;;;;28.35;19.13;;;204.80;2022.40;;;;;;5075819;28;20066;-60
2021/12/06 06:01:49;;;;;;;26.02;18.60;;;204.80;2022.40;;;;;;5094224;28;20036;-60
2021/12/06 06:04:15;;;;;;;27.90;18.05;;;204.80;2022.40;;;;;;5094933;28;20020;-60
2021/12/06 06:06:41;;;;;;;31.30;19.00;;;204.80;2022.40;;;;;;5090181;28;20385;-61
2021/12/06 06:09:07;;;;;;;31.25;18.77;;;204.80;2048.00;;;;;;5074192;28;20047;-59
2021/12/06 06:11:34;;;;;;;31.88;19.73;;;204.80;2022.40;;;;;;5074254;28;20029;-61
2021/12/06 06:14:01;;;;;;;44.90;28.65;;;204.80;2022.40;;;;;;5074047;28;20037;-61
2021/12/06 06:16:31;;;;;;;51.40;30.08;;;204.80;2048.00;;;;;;5074494;28;20086;-60
2021/12/06 06:18:57;;;;;;;47.33;27.30;;;180.10;2048.00;;;;;;5078144;28;20039;-61
2021/12/06 06:21:23;;;;;;;45.15;25.42;;;180.10;2048.00;;;;;;5094428;28;20028;-61
2021/12/06 06:23:49;;;;;;;42.35;26.48;;;204.80;2022.40;;;;;;5094384;28;20393;-60
2021/12/06 06:26:15;;;;;;;37.58;21.73;;;204.80;2022.40;;;;;;5094318;28;20032;-60
2021/12/06 06:28:40;;;;;;;31.10;20.42;;;204.80;2022.40;;;;;;5094643;28;20020;-60
2021/12/06 06:31:06;;;;;;;30.48;19.02;;;180.10;2022.40;;;;;;5094068;28;20020;-60
2021/12/06 06:33:32;;;;;;;25.63;16.20;;;204.80;2022.40;;;;;;5094253;28;20046;-60
2021/12/06 06:35:58;;;;;;;24.40;16.65;;;204.80;2022.40;;;;;;5074990;28;20035;-61
2021/12/06 06:38:24;;;;;;;30.52;18.10;;;180.10;2022.40;;;;;;5094195;28;20365;-60
2021/12/06 06:40:50;;;;;;;34.63;19.17;;;204.80;2022.40;;;;;;5094138;28;20553;-60
2021/12/06 06:43:17;;;;;;;26.88;17.17;;;180.10;2022.40;;;;;;5093972;28;20028;-60
2021/12/06 06:45:43;;;;;;;27.23;16.45;;;204.80;2022.40;;;;;;5094074;28;20028;-60
2021/12/06 06:48:09;;;;;;;24.45;16.17;;;204.80;2022.40;;;;;;5093911;28;20514;-61
2021/12/06 06:50:35;;;;;;;23.25;15.52;;;204.80;1996.80;;;;;;5093951;28;20110;-61
2021/12/06 06:53:01;;;;;;;23.65;15.88;;;204.80;1996.80;;;;;;5094275;28;20123;-60
2021/12/06 06:55:27;;;;;;;21.38;14.82;;;204.80;1996.80;;;;;;5094227;28;20020;-60
2021/12/06 06:57:53;;;;;;;22.90;14.73;;;204.80;1996.80;;;;;;5093817;28;20073;-60
2021/12/06 07:00:25;;;;;;;22.70;14.38;;;204.80;1996.80;;;;;;5074795;28;20175;-61
2021/12/06 07:02:51;;;;;;;22.02;15.05;;;204.80;1996.80;;;;;;5093799;28;20468;-60
2021/12/06 07:05:17;;;;;;;20.80;13.52;;;204.80;1996.80;;;;;;5093699;28;20025;-60
2021/12/06 07:07:44;;;;;;;23.50;14.55;;;204.80;1996.80;;;;;;5094192;28;20032;-60
2021/12/06 07:10:10;;;;;;;25.85;15.88;;;204.80;1996.80;;;;;;5093789;28;20058;-60
2021/12/06 07:12:43;;;;;;;25.73;15.98;;;204.80;1996.80;;;;;;5093632;28;20470;-61
2021/12/06 07:15:12;;;;;;;22.73;14.13;;;204.80;1996.80;;;;;;5093894;28;20051;-56
2021/12/06 07:17:42;;;;;;;22.15;15.10;;;180.10;1996.80;;;;;;5094064;28;20385;-57
2021/12/06 07:20:11;;;;;;;22.52;14.40;;;204.90;1996.80;;;;;;5093643;28;20024;-57
2021/12/06 07:22:37;;;;;;;27.42;15.70;;;180.10;1996.80;;;;;;5093506;28;20036;-57
2021/12/06 07:25:04;;;;;;;22.30;15.00;;;180.10;2022.40;;;;;;5093504;28;20470;-57
2021/12/06 07:27:30;;;;;;;24.35;15.65;;;180.10;1996.80;;;;;;5093358;28;20527;-56
2021/12/06 07:29:57;;;;;;;24.88;15.13;;;180.10;2022.40;;;;;;5093638;28;20369;-56
2021/12/06 07:32:22;;;;;;;23.65;15.13;;;180.10;1996.80;;;;;;5093256;28;20028;-57
2021/12/06 07:45:09;;;;;;;59.17;30.02;;;180.00;2022.40;;;;;;5094018;28;20028;-57
2021/12/06 07:47:37;;;;;;;45.72;25.42;;;180.00;2022.40;;;;;;5093220;28;20048;-56
2021/12/06 08:00:23;;;;;;;25.45;15.40;;;179.90;2022.40;;;;;;5093017;28;20035;-56
2021/12/06 08:02:50;;;;;;;23.80;15.70;;;179.90;2022.40;;;;;;5093253;28;20024;-57
2021/12/06 08:13:26;;;;;;;36.13;20.98;;;179.90;2022.40;;;;;;5119591;27;20190;-56
2021/12/06 08:15:54;;;;;;;34.20;21.77;;;179.90;2022.40;;;;;;5076845;28;20036;-56
2021/12/06 08:18:20;;;;;;;25.38;16.75;;;179.80;2022.40;;;;;;5076571;28;20040;-57
2021/12/06 08:40:53;;;;;;;41.42;25.60;;;179.80;2022.40;;;;;;5239214;22;20067;-57
2021/12/06 08:43:19;;;;;;;44.83;25.45;;;179.80;2022.40;;;;;;5075892;28;20419;-57
2021/12/06 08:46:08;;;;;;;39.58;23.15;;;179.70;2022.40;;;;;;5096438;28;20488;-57
2021/12/06 08:48:36;;;;;;;39.72;23.13;;;179.80;2022.40;;;;;;5096362;28;20031;-57
2021/12/06 08:51:10;;;;;;;67.55;38.28;;;179.80;2022.40;;;;;;5096269;28;20038;-57
2021/12/06 08:53:37;;;;;;;53.50;32.53;;;179.80;2022.40;;;;;;5096043;28;20458;-57
2021/12/06 08:56:03;;;;;;;42.30;25.55;;;179.70;2022.40;;;;;;5095917;28;20081;-57
2021/12/06 08:58:29;;;;;;;33.03;21.30;;;179.70;2022.40;;;;;;5096183;28;20036;-57
2021/12/06 09:00:56;;;;;;;36.78;21.23;;;179.80;2022.40;;;;;;5095829;28;20028;-57
2021/12/06 09:03:22;;;;;;;42.10;22.83;;;179.80;2022.40;;;;;;5095690;28;20020;-57
2021/12/06 09:05:51;;;;;;;36.42;21.95;;;179.80;2022.40;;;;;;5095820;28;20040;-56
2021/12/06 09:08:17;;;;;;;38.03;22.35;;;179.80;2022.40;;;;;;5095677;28;20107;-57
2021/12/06 09:10:47;;;;;;;38.92;22.10;;;179.80;1996.80;;;;;;5095514;28;20055;-56
2021/12/06 09:13:13;;;;;;;32.58;20.38;;;179.80;2022.40;;;;;;5095787;28;20052;-57
2021/12/06 09:15:38;;;;;;;40.33;22.60;;;179.80;1996.80;;;;;;5095500;28;20085;-56
2021/12/06 09:18:04;;;;;;;36.25;20.40;;;179.80;1996.80;;;;;;5095815;28;20024;-56
2021/12/06 09:20:34;;;;;;;36.47;20.95;;;179.90;2022.40;;;;;;5095377;28;20020;-56
2021/12/06 09:23:01;;;;;;;42.13;21.83;;;179.80;1996.80;;;;;;5095613;28;20069;-61
2021/12/06 09:25:28;;;;;;;36.83;21.83;;;179.90;1996.80;;;;;;5095136;28;20427;-57
2021/12/06 09:27:53;;;;;;;45.30;21.67;;;179.90;1996.80;;;;;;5084247;28;20039;-57
2021/12/06 09:30:24;;;;;;;37.38;21.27;;;179.80;2022.40;;;;;;5095513;28;20020;-57
2021/12/06 09:32:50;;;;;;;34.78;20.75;;;179.90;2022.40;;;;;;5095393;28;20107;-57
2021/12/06 09:35:21;;;;;;;33.88;21.10;;;179.90;1996.80;;;;;;5095167;28;20579;-57
2021/12/06 09:37:48;;;;;;;36.20;20.48;;;179.80;1996.80;;;;;;5095340;28;20032;-57
2021/12/06 09:40:17;;;;;;;34.80;20.85;;;179.80;1996.80;;;;;;5094790;28;20021;-57
2021/12/06 09:42:44;;;;;;;36.28;20.58;;;179.80;1996.80;;;;;;5094706;28;20056;-57
2021/12/06 09:45:13;;;;;;;36.13;21.67;;;179.80;1996.80;;;;;;5095177;28;20376;-57
2021/12/06 09:47:45;;;;;;;38.85;21.63;;;179.80;2022.40;;;;;;5094839;28;20023;-57
2021/12/06 09:50:11;;;;;;;36.50;22.38;;;179.80;2022.40;;;;;;5094861;28;20370;-56
2021/12/06 09:52:37;;;;;;;42.45;22.52;;;179.80;1996.80;;;;;;5094626;28;20439;-57
2021/12/06 09:55:03;;;;;;;36.80;22.25;;;179.70;2022.40;;;;;;5094428;28;20028;-56
2021/12/06 09:57:29;;;;;;;40.75;22.33;;;179.70;2022.40;;;;;;5094609;28;20024;-56
2021/12/06 09:59:55;;;;;;;44.92;24.85;;;179.70;2022.40;;;;;;5094775;28;20456;-56
2021/12/06 10:02:21;;;;;;;50.10;25.77;;;179.70;2022.40;;;;;;5094676;28;20519;-55
2021/12/06 10:04:53;;;;;;;40.80;23.27;;;179.70;2022.40;;;;;;5094649;28;20495;-56
2021/12/06 10:07:21;;;;;;;45.08;24.20;;;179.70;2022.40;;;;;;5094325;28;20377;-56
2021/12/06 10:09:48;;;;;;;47.05;23.58;;;179.70;2022.40;;;;;;5086965;28;20489;-56
2021/12/06 10:12:16;;;;;;;51.35;26.88;;;179.70;2022.40;;;;;;5085030;28;20090;-55
2021/12/06 10:14:46;;;;;;;55.60;30.10;;;179.70;2022.40;;;;;;5084881;28;20035;-56
2021/12/06 10:17:15;;;;;;;49.38;28.38;;;179.70;2022.40;;;;;;5083647;28;20028;-56
2021/12/06 10:19:42;;;;;;;52.50;26.38;;;179.60;2048.00;;;;;;5082512;28;20028;-55
2021/12/06 10:22:09;;;;;;;56.95;31.23;;;179.60;2048.00;;;;;;5084589;28;20027;-55
2021/12/06 10:24:35;;;;;;;55.47;31.15;;;179.60;2048.00;;;;;;5083646;28;20040;-56
2021/12/06 10:27:11;;;;;;;58.13;32.58;;;179.60;2048.00;;;;;;5082456;28;20020;-55
2021/12/06 10:29:46;;;;;;;64.78;32.97;;;179.70;2073.60;;;;;;5084579;28;20039;-55
2021/12/06 10:32:22;;;;;;;67.43;36.83;;;179.70;2073.60;;;;;;5084881;28;20078;-56
2021/12/06 10:34:52;;;;;;;54.58;31.38;;;179.70;2048.00;;;;;;5084185;28;20078;-56
2021/12/06 10:37:34;;;;;;;51.58;28.73;;;179.70;2048.00;;;;;;5080608;28;20048;-55
2021/12/06 10:40:03;;;;;;;50.83;27.50;;;179.70;2048.00;;;;;;5083696;28;20021;-57
2021/12/06 10:42:50;;;;;;;52.72;29.92;;;179.70;2048.00;;;;;;5082566;28;20518;-56
2021/12/06 10:45:22;;;;;;;57.60;32.20;;;179.70;2048.00;;;;;;5083312;28;20495;-56
2021/12/06 10:48:09;;;;;;;69.95;35.90;;;179.70;2048.00;;;;;;5088112;28;20034;-57
2021/12/06 10:50:38;;;;;;;69.47;37.28;;;179.70;2048.00;;;;;;5084068;28;20017;-56
2021/12/06 10:53:04;;;;;;;63.10;37.10;;;179.70;2073.60;;;;;;5082133;28;20055;-56
2021/12/06 10:55:32;;;;;;;50.22;33.05;;;179.70;2048.00;;;;;;5083308;28;20016;-56
2021/12/06 10:58:04;;;;;;;49.47;27.60;;;179.70;2073.60;;;;;;5083167;28;20017;-57
2021/12/06 11:00:50;;;;;;;54.75;29.70;;;179.70;2073.60;;;;;;5083178;28;20032;-56
2021/12/06 11:03:24;;;;;;;107.85;66.68;;;179.80;2073.60;;;;;;5083073;28;20480;-57
2021/12/06 11:06:02;;;;;;;140.70;86.00;;;179.80;2048.00;;;;;;5083488;28;20077;-59
2021/12/06 11:08:31;;;;;;;79.05;56.28;;;179.90;2176.00;;;;;;5083175;28;20032;-63
2021/12/06 11:11:01;;;;;;;84.35;56.22;;;204.90;2150.40;;;;;;5083315;28;20050;-62
2021/12/06 11:13:36;;;;;;;69.97;46.92;;;205.20;2099.20;;;;;;5078336;28;20456;-57
2021/12/06 11:16:27;;;;;;;94.45;58.40;;;205.40;2048.00;;;;;;5073344;28;20102;-60
2021/12/06 11:18:57;;;;;;;115.18;69.32;;;205.40;1996.80;;;;;;5073267;28;20188;-59
2021/12/06 11:21:34;;;;;;;87.03;55.28;;;205.20;1996.80;;;;;;5073168;28;20025;-58
2021/12/06 11:24:08;;;;;;;64.78;39.50;;;205.20;1971.20;;;;;;5073301;28;20032;-57
2021/12/06 11:26:43;;;;;;;62.80;35.47;;;205.10;1971.20;;;;;;5073120;28;20025;-58
2021/12/06 11:29:11;;;;;;;63.97;35.88;;;205.10;1971.20;;;;;;5073354;28;20031;-58
2021/12/06 11:31:39;;;;;;;53.05;32.35;;;205.00;1996.80;;;;;;5073004;28;20114;-60
2021/12/06 11:34:06;;;;;;;55.25;31.30;;;204.90;1996.80;;;;;;5072863;28;20039;-61
2021/12/06 11:36:32;;;;;;;46.42;28.88;;;204.90;2022.40;;;;;;5073249;28;20028;-59
2021/12/06 11:39:03;;;;;;;49.97;29.83;;;204.90;2022.40;;;;;;5073011;28;20025;-58
2021/12/06 11:41:30;;;;;;;48.10;30.83;;;204.90;2022.40;;;;;;5072804;28;20144;-60
2021/12/06 11:43:58;;;;;;;49.95;32.38;;;204.90;2022.40;;;;;;5073107;28;20028;-59
2021/12/06 11:46:32;;;;;;;62.33;40.00;;;204.80;2022.40;;;;;;5073247;28;20032;-59
2021/12/06 11:48:58;;;;;;;68.97;47.72;;;204.80;2022.40;;;;;;5075657;28;20021;-58
2021/12/06 11:51:25;;;;;;;70.00;48.85;;;204.80;2022.40;;;;;;5075331;28;20086;-58
2021/12/06 11:53:58;;;;;;;68.47;48.13;;;204.80;2022.40;;;;;;5075577;28;20059;-59
2021/12/06 11:56:31;;;;;;;55.72;39.92;;;204.80;2022.40;;;;;;5076794;28;20059;-59
2021/12/06 11:59:06;;;;;;;51.08;36.17;;;204.80;2022.40;;;;;;5076194;28;20464;-58
2021/12/06 12:01:38;;;;;;;43.75;29.88;;;204.80;2048.00;;;;;;5076780;28;20035;-60
2021/12/06 12:04:24;;;;;;;71.70;50.88;;;180.10;2048.00;;;;;;5079060;28;20037;-58
2021/12/06 12:07:02;;;;;;;67.43;46.72;;;180.10;2048.00;;;;;;5092985;28;20050;-59
2021/12/06 12:09:29;;;;;;;66.38;43.65;;;180.10;2048.00;;;;;;5094806;28;20039;-59
2021/12/06 12:12:00;;;;;;;60.92;38.90;;;180.10;2048.00;;;;;;5081924;28;20049;-59
2021/12/06 12:14:35;;;;;;;51.45;33.15;;;180.10;2048.00;;;;;;5086090;28;20059;-59
2021/12/06 12:17:23;;;;;;;56.67;35.72;;;180.10;2048.00;;;;;;5074689;28;20063;-60
2021/12/06 12:19:52;;;;;;;53.05;31.92;;;180.10;2048.00;;;;;;5075964;28;20044;-64
2021/12/06 12:22:18;;;;;;;45.90;27.88;;;204.80;2176.00;;;;;;5076496;28;20086;-61
2021/12/06 12:24:49;;;;;;;60.38;33.80;;;205.20;2150.40;;;;;;5076027;28;20028;-64
2021/12/06 12:29:54;;;;;;;93.10;56.67;;;205.10;2048.00;;;;;;5076220;28;20059;-60
2021/12/06 12:32:20;;;;;;;63.10;44.70;;;205.10;2048.00;;;;;;5085551;28;20054;-63
2021/12/06 12:34:49;;;;;;;71.95;48.97;;;205.10;2022.40;;;;;;5096585;28;20035;-64
2021/12/06 12:37:17;;;;;;;62.97;37.67;;;205.00;2022.40;;;;;;5092910;28;20024;-59
2021/12/06 12:40:01;;;;;;;62.63;34.03;;;205.00;2022.40;;;;;;5089968;28;20048;-60
2021/12/06 12:42:28;;;;;;;49.70;28.63;;;204.90;2022.40;;;;;;5083415;28;20052;-58
2021/12/06 12:44:56;;;;;;;44.97;27.55;;;204.90;2022.40;;;;;;5084203;28;20028;-59
2021/12/06 12:47:25;;;;;;;49.60;28.80;;;204.90;2022.40;;;;;;5087274;28;20469;-59
2021/12/06 12:50:06;;;;;;;51.15;32.92;;;204.90;2022.40;;;;;;5096151;28;20055;-59
2021/12/06 12:52:41;;;;;;;46.55;31.50;;;204.90;2022.40;;;;;;5083844;28;20040;-59
2021/12/06 12:55:27;;;;;;;42.70;28.95;;;204.90;2022.40;;;;;;5080544;28;20066;-60
2021/12/06 12:58:15;;;;;;;40.38;27.30;;;204.90;2022.40;;;;;;5079253;28;20037;-60
2021/12/06 13:00:51;;;;;;;37.67;24.55;;;204.80;2022.40;;;;;;5086139;28;20039;-60
2021/12/06 13:03:32;;;;;;;40.75;24.27;;;204.80;2022.40;;;;;;5086490;28;20066;-62
2021/12/06 13:06:18;;;;;;;45.47;28.20;;;204.80;2022.40;;;;;;5086181;28;20023;-58
2021/12/06 13:08:45;;;;;;;46.60;28.17;;;204.80;2022.40;;;;;;5085804;28;20025;-60
2021/12/06 13:11:11;;;;;;;38.67;25.27;;;204.80;2048.00;;;;;;5085915;28;20047;-58